createdAt,value
2023-05-12T00:01:58.727Z,15.00
2023-05-12T00:04:26.139Z,14.90
2023-05-12T00:06:53.125Z,14.90
2023-05-12T00:09:20.032Z,14.80
2023-05-12T00:11:48.408Z,14.90
2023-05-12T00:14:15.826Z,15.10
2023-05-12T00:19:24.164Z,14.90
2023-05-12T00:21:51.354Z,14.80
2023-05-12T00:24:18.292Z,14.70
2023-05-12T00:26:45.166Z,14.90
2023-05-12T00:29:15.077Z,14.90
2023-05-12T00:31:42.135Z,14.90
2023-05-12T00:34:09.151Z,14.90
2023-05-12T00:36:36.942Z,14.90
2023-05-12T00:39:04.742Z,14.80
2023-05-12T00:41:31.638Z,14.80
2023-05-12T00:43:58.561Z,14.80
2023-05-12T00:46:25.505Z,14.80
2023-05-12T00:48:53.384Z,14.80
2023-05-12T00:51:20.953Z,14.80
2023-05-12T00:53:50.659Z,14.80
2023-05-12T00:56:19.261Z,14.80
2023-05-12T00:58:46.991Z,14.90
2023-05-12T01:01:14.280Z,14.90
2023-05-12T01:03:42.113Z,14.90
2023-05-12T01:06:23.186Z,14.80
2023-05-12T01:08:50.546Z,14.90
2023-05-12T01:11:17.490Z,15.00
2023-05-12T01:13:44.608Z,14.90
2023-05-12T01:16:13.985Z,14.90
2023-05-12T01:18:43.378Z,14.90
2023-05-12T01:21:11.355Z,14.90
2023-05-12T01:23:46.676Z,15.00
2023-05-12T01:26:13.886Z,15.00
2023-05-12T01:28:41.405Z,14.90
2023-05-12T01:31:09.338Z,14.80
2023-05-12T01:33:36.320Z,14.70
2023-05-12T01:36:03.319Z,14.70
2023-05-12T01:38:30.208Z,14.70
2023-05-12T01:40:57.336Z,14.70
2023-05-12T01:43:24.362Z,14.80
2023-05-12T01:45:51.356Z,14.90
2023-05-12T01:48:18.600Z,14.90
2023-05-12T01:50:45.628Z,15.00
2023-05-12T01:53:12.773Z,15.00
2023-05-12T01:55:39.915Z,15.00
2023-05-12T01:58:06.875Z,15.00
2023-05-12T02:00:33.764Z,14.90
2023-05-12T02:03:00.802Z,15.00
2023-05-12T02:05:29.884Z,14.90
2023-05-12T02:07:57.025Z,14.90
2023-05-12T02:10:24.077Z,15.00
2023-05-12T02:12:51.376Z,14.90
2023-05-12T02:15:18.470Z,14.80
2023-05-12T02:17:45.754Z,14.80
2023-05-12T02:20:13.065Z,14.80
2023-05-12T02:22:39.958Z,14.90
2023-05-12T02:25:07.512Z,14.80
2023-05-12T02:27:34.581Z,14.90
2023-05-12T02:30:01.474Z,14.90
2023-05-12T02:32:28.741Z,14.90
2023-05-12T02:34:56.646Z,14.80
2023-05-12T02:37:23.649Z,14.90
2023-05-12T02:39:50.988Z,15.00
2023-05-12T02:42:18.001Z,15.00
2023-05-12T02:44:44.980Z,15.00
2023-05-12T02:47:11.882Z,14.90
2023-05-12T02:49:38.694Z,14.90
2023-05-12T02:52:05.982Z,14.90
2023-05-12T02:54:32.878Z,15.00
2023-05-12T02:57:03.844Z,14.90
2023-05-12T02:59:30.891Z,14.90
2023-05-12T03:01:58.127Z,14.80
2023-05-12T03:04:24.924Z,14.80
2023-05-12T03:06:51.940Z,14.80
2023-05-12T03:09:20.479Z,14.80
2023-05-12T03:11:47.487Z,14.80
2023-05-12T03:14:14.582Z,14.80
2023-05-12T03:16:41.476Z,14.80
2023-05-12T03:19:08.624Z,14.80
2023-05-12T03:21:35.794Z,14.80
2023-05-12T03:24:02.721Z,14.80
2023-05-12T03:26:29.631Z,14.80
2023-05-12T03:28:56.739Z,14.90
2023-05-12T03:31:24.492Z,14.90
2023-05-12T03:33:51.517Z,14.90
2023-05-12T03:36:18.500Z,15.00
2023-05-12T03:38:45.370Z,15.00
2023-05-12T03:41:12.437Z,14.90
2023-05-12T03:43:39.744Z,14.90
2023-05-12T03:46:06.731Z,15.00
2023-05-12T03:48:33.689Z,14.90
2023-05-12T03:51:00.551Z,14.80
2023-05-12T03:53:27.482Z,14.80
2023-05-12T03:55:54.337Z,14.90
2023-05-12T03:58:23.508Z,14.80
2023-05-12T04:00:50.917Z,14.80
2023-05-12T04:03:19.465Z,14.80
2023-05-12T04:05:46.552Z,14.80
2023-05-12T04:08:13.795Z,14.80
2023-05-12T04:10:42.095Z,14.80
2023-05-12T04:13:09.165Z,14.80
2023-05-12T04:15:37.359Z,14.90
2023-05-12T04:18:04.541Z,14.90
2023-05-12T04:20:31.592Z,14.90
2023-05-12T04:22:58.796Z,15.00
2023-05-12T04:25:26.707Z,15.00
2023-05-12T04:27:53.791Z,14.90
2023-05-12T04:30:21.131Z,14.90
2023-05-12T04:32:48.898Z,14.80
2023-05-12T04:35:16.859Z,14.80
2023-05-12T04:37:47.130Z,14.70
2023-05-12T04:40:14.030Z,14.70
2023-05-12T04:42:41.041Z,14.80
2023-05-12T04:45:09.852Z,14.90
2023-05-12T04:47:37.135Z,14.80
2023-05-12T04:50:04.683Z,14.90
2023-05-12T04:52:32.103Z,14.90
2023-05-12T04:54:59.239Z,14.90
2023-05-12T04:57:29.330Z,14.90
2023-05-12T04:59:58.206Z,14.80
2023-05-12T05:02:28.220Z,15.00
2023-05-12T05:04:55.418Z,14.90
2023-05-12T05:07:23.299Z,14.70
2023-05-12T05:09:50.259Z,14.70
2023-05-12T05:12:17.361Z,14.60
2023-05-12T05:14:44.401Z,14.70
2023-05-12T05:17:12.584Z,14.80
2023-05-12T05:19:53.102Z,14.90
2023-05-12T05:22:22.992Z,15.00
2023-05-12T05:24:50.273Z,15.00
2023-05-12T05:27:17.374Z,14.90
2023-05-12T05:29:44.610Z,14.90
2023-05-12T05:32:11.675Z,14.90
2023-05-12T05:34:38.621Z,15.00
2023-05-12T05:37:06.609Z,14.90
2023-05-12T05:39:33.663Z,14.70
2023-05-12T05:42:03.608Z,14.70
2023-05-12T05:44:30.497Z,14.80
2023-05-12T05:46:57.517Z,14.80
2023-05-12T05:49:24.786Z,14.60
2023-05-12T05:51:51.901Z,14.60
2023-05-12T05:54:18.940Z,14.70
2023-05-12T05:56:46.110Z,14.70
2023-05-12T05:59:14.386Z,14.60
2023-05-12T06:01:45.683Z,14.70
2023-05-12T06:04:12.908Z,14.60
2023-05-12T06:06:41.490Z,14.60
2023-05-12T06:09:12.279Z,14.60
2023-05-12T06:11:41.464Z,14.70
2023-05-12T06:14:08.530Z,14.70
2023-05-12T06:16:35.531Z,14.70
2023-05-12T06:19:02.761Z,14.70
2023-05-12T06:21:29.762Z,14.70
2023-05-12T06:23:57.089Z,14.60
2023-05-12T06:26:23.985Z,14.70
2023-05-12T06:28:51.645Z,14.70
2023-05-12T06:31:18.610Z,14.80
2023-05-12T06:33:45.775Z,14.70
2023-05-12T06:36:12.740Z,14.70
2023-05-12T06:38:39.820Z,14.70
2023-05-12T06:41:08.810Z,14.60
2023-05-12T06:43:35.761Z,14.60
2023-05-12T06:46:02.733Z,14.60
2023-05-12T06:48:29.654Z,14.60
2023-05-12T06:50:56.526Z,14.70
2023-05-12T06:53:25.487Z,14.60
2023-05-12T06:55:53.766Z,14.60
2023-05-12T06:58:22.900Z,14.60
2023-05-12T07:00:49.971Z,14.50
2023-05-12T07:03:17.530Z,14.60
2023-05-12T07:05:44.591Z,14.60
2023-05-12T07:08:11.488Z,14.50
2023-05-12T07:10:38.993Z,14.50
2023-05-12T07:13:06.398Z,14.60
2023-05-12T07:15:33.307Z,14.40
2023-05-12T07:18:00.387Z,14.40
2023-05-12T07:20:28.235Z,14.40
2023-05-12T07:22:56.581Z,14.50
2023-05-12T07:25:24.472Z,14.40
2023-05-12T07:27:51.769Z,14.30
2023-05-12T07:30:18.861Z,14.40
2023-05-12T07:32:46.466Z,14.30
2023-05-12T07:35:13.888Z,14.30
2023-05-12T07:37:41.522Z,14.30
2023-05-12T07:40:09.450Z,14.20
2023-05-12T07:42:36.653Z,14.20
2023-05-12T07:45:03.969Z,14.30
2023-05-12T07:47:30.995Z,14.30
2023-05-12T07:49:58.190Z,14.30
2023-05-12T07:52:25.115Z,14.40
2023-05-12T07:54:51.950Z,14.30
2023-05-12T07:57:18.865Z,14.40
2023-05-12T07:59:45.947Z,14.30
2023-05-12T08:02:14.621Z,14.40
2023-05-12T08:04:43.176Z,14.40
2023-05-12T08:07:11.296Z,14.50
2023-05-12T08:09:38.244Z,14.40
2023-05-12T08:12:05.646Z,14.40
2023-05-12T08:14:32.570Z,14.30
2023-05-12T08:16:59.568Z,14.30
2023-05-12T08:19:26.615Z,14.20
2023-05-12T08:21:53.886Z,14.30
2023-05-12T08:24:21.953Z,14.20
2023-05-12T08:26:48.842Z,14.20
2023-05-12T08:29:16.662Z,14.20
2023-05-12T08:31:43.719Z,14.20
2023-05-12T08:34:11.335Z,14.20
2023-05-12T08:36:40.132Z,14.20
2023-05-12T08:39:08.433Z,14.20
2023-05-12T08:41:49.409Z,14.20
2023-05-12T08:44:18.681Z,14.20
2023-05-12T08:46:48.398Z,14.20
2023-05-12T08:49:20.399Z,14.20
2023-05-12T08:51:57.157Z,14.20
2023-05-12T08:54:28.186Z,14.10
2023-05-12T08:59:25.678Z,14.20
2023-05-12T09:01:54.769Z,14.10
2023-05-12T09:04:22.954Z,14.10
2023-05-12T09:06:50.336Z,14.10
2023-05-12T09:09:17.873Z,14.20
2023-05-12T09:11:45.392Z,14.10
2023-05-12T09:14:25.839Z,14.20
2023-05-12T09:17:00.222Z,14.20
2023-05-12T09:19:28.100Z,14.20
2023-05-12T09:21:55.311Z,14.30
2023-05-12T09:24:43.080Z,14.40
2023-05-12T09:27:10.128Z,14.40
2023-05-12T09:29:55.524Z,14.50
2023-05-12T09:32:33.608Z,14.50
2023-05-12T09:35:14.873Z,14.60
2023-05-12T09:37:41.726Z,14.50
2023-05-12T09:40:11.678Z,14.50
2023-05-12T09:42:39.089Z,14.50
2023-05-12T09:45:09.390Z,14.70
2023-05-12T09:47:41.468Z,14.70
2023-05-12T09:50:10.254Z,14.80
2023-05-12T09:52:39.519Z,14.90
2023-05-12T09:55:08.420Z,14.90
2023-05-12T09:57:39.768Z,14.90
2023-05-12T10:00:28.631Z,15.00
2023-05-12T10:02:59.348Z,14.90
2023-05-12T10:05:27.431Z,15.00
2023-05-12T10:07:59.680Z,15.00
2023-05-12T10:10:28.029Z,15.10
2023-05-12T10:12:56.157Z,15.10
2023-05-12T10:15:25.765Z,15.20
2023-05-12T10:17:59.371Z,15.20
2023-05-12T10:20:27.918Z,15.40
2023-05-12T10:22:57.918Z,15.50
2023-05-12T10:25:24.811Z,15.50
2023-05-12T10:27:53.175Z,15.50
2023-05-12T10:30:20.683Z,15.40
2023-05-12T10:32:47.971Z,15.50
2023-05-12T10:35:15.312Z,15.60
2023-05-12T10:37:43.690Z,15.70
2023-05-12T10:40:11.443Z,15.70
2023-05-12T10:42:40.701Z,15.80
2023-05-12T10:45:20.134Z,15.90
2023-05-12T10:47:48.133Z,15.80
2023-05-12T10:50:15.316Z,15.90
2023-05-12T10:52:54.273Z,16.00
2023-05-12T10:55:35.806Z,16.00
2023-05-12T10:58:08.552Z,16.10
2023-05-12T11:00:47.821Z,16.20
2023-05-12T11:03:18.924Z,16.30
2023-05-12T11:05:49.053Z,16.50
2023-05-12T11:08:17.654Z,16.70
2023-05-12T11:10:47.088Z,16.90
2023-05-12T11:13:14.256Z,17.10
2023-05-12T11:15:44.515Z,17.20
2023-05-12T11:18:13.092Z,17.40
2023-05-12T11:20:40.104Z,17.40
2023-05-12T11:23:07.051Z,17.40
2023-05-12T11:25:34.120Z,17.40
2023-05-12T11:28:01.673Z,17.20
2023-05-12T11:30:28.759Z,17.20
2023-05-12T11:33:03.473Z,17.00
2023-05-12T11:35:32.637Z,17.00
2023-05-12T11:37:59.771Z,17.00
2023-05-12T11:40:27.532Z,17.10
2023-05-12T11:42:56.268Z,17.30
2023-05-12T11:45:34.134Z,17.30
2023-05-12T11:48:11.447Z,17.50
2023-05-12T11:50:43.962Z,17.60
2023-05-12T11:53:19.170Z,18.00
2023-05-12T11:55:54.668Z,18.50
2023-05-12T11:58:27.270Z,18.70
2023-05-12T12:00:54.993Z,18.70
2023-05-12T12:03:23.706Z,18.80
2023-05-12T12:06:02.053Z,18.80
2023-05-12T12:08:29.997Z,18.70
2023-05-12T12:10:57.116Z,18.90
2023-05-12T12:13:27.335Z,19.00
2023-05-12T12:15:54.277Z,19.20
2023-05-12T12:18:21.416Z,19.40
2023-05-12T12:20:48.761Z,19.50
2023-05-12T12:23:15.820Z,19.40
2023-05-12T12:25:43.720Z,19.60
2023-05-12T12:28:11.262Z,19.50
2023-05-12T12:30:38.235Z,19.50
2023-05-12T12:33:05.336Z,19.50
2023-05-12T12:35:32.390Z,19.70
2023-05-12T12:37:59.634Z,20.00
2023-05-12T12:40:26.690Z,20.60
2023-05-12T12:42:54.130Z,21.10
2023-05-12T12:45:21.347Z,21.50
2023-05-12T12:47:48.538Z,21.00
2023-05-12T12:50:15.463Z,20.90
2023-05-12T12:52:42.668Z,20.80
2023-05-12T12:55:10.146Z,20.90
2023-05-12T12:57:37.053Z,21.00
2023-05-12T13:00:06.355Z,21.00
2023-05-12T13:02:35.182Z,21.60
2023-05-12T13:05:04.174Z,22.20
2023-05-12T13:07:31.275Z,23.10
2023-05-12T13:09:58.362Z,24.00
2023-05-12T13:12:25.784Z,24.30
2023-05-12T13:14:57.665Z,24.10
2023-05-12T13:17:24.828Z,24.50
2023-05-12T13:19:52.744Z,24.30
2023-05-12T13:22:20.618Z,24.10
2023-05-12T13:24:48.341Z,23.50
2023-05-12T13:27:15.196Z,23.10
2023-05-12T13:29:42.442Z,22.40
2023-05-12T13:32:09.565Z,22.20
2023-05-12T13:34:36.709Z,21.70
2023-05-12T13:37:05.292Z,21.20
2023-05-12T13:39:32.250Z,21.10
2023-05-12T13:41:59.879Z,21.10
2023-05-12T13:44:27.602Z,21.00
2023-05-12T13:46:54.502Z,21.10
2023-05-12T13:49:21.521Z,21.10
2023-05-12T13:51:48.439Z,21.20
2023-05-12T13:54:15.314Z,21.10
2023-05-12T13:56:42.882Z,20.70
2023-05-12T13:59:10.582Z,20.50
2023-05-12T14:01:39.598Z,20.30
2023-05-12T14:04:06.495Z,20.20
2023-05-12T14:06:34.206Z,20.00
2023-05-12T14:09:01.145Z,19.90
2023-05-12T14:11:28.095Z,19.80
2023-05-12T14:13:55.136Z,19.60
2023-05-12T14:16:22.381Z,19.90
2023-05-12T14:18:49.312Z,20.10
2023-05-12T14:21:16.370Z,20.60
2023-05-12T14:23:43.475Z,20.80
2023-05-12T14:26:10.365Z,20.70
2023-05-12T14:28:38.947Z,20.70
2023-05-12T14:31:06.495Z,20.20
2023-05-12T14:33:33.417Z,19.90
2023-05-12T14:36:07.335Z,19.70
2023-05-12T14:38:35.798Z,19.50
2023-05-12T14:41:02.698Z,19.50
2023-05-12T14:43:29.510Z,19.40
2023-05-12T14:45:56.522Z,19.50
2023-05-12T14:48:27.686Z,19.30
2023-05-12T14:50:59.019Z,19.20
2023-05-12T14:53:26.213Z,19.20
2023-05-12T14:55:53.312Z,19.20
2023-05-12T14:58:24.550Z,19.20
2023-05-12T15:00:51.871Z,19.30
2023-05-12T15:03:20.895Z,19.50
2023-05-12T15:06:04.902Z,19.70
2023-05-12T15:08:33.640Z,19.80
2023-05-12T15:11:00.653Z,19.90
2023-05-12T15:13:27.473Z,20.10
2023-05-12T15:15:59.150Z,20.30
2023-05-12T15:18:26.273Z,20.40
2023-05-12T15:20:53.318Z,20.60
2023-05-12T15:23:20.434Z,20.70
2023-05-12T15:25:47.458Z,20.80
2023-05-12T15:28:14.540Z,20.90
2023-05-12T15:30:41.740Z,21.10
2023-05-12T15:33:08.913Z,21.40
2023-05-12T15:35:36.093Z,21.80
2023-05-12T15:38:04.211Z,22.10
2023-05-12T15:40:31.320Z,22.10
2023-05-12T15:42:58.480Z,22.30
2023-05-12T15:45:25.427Z,22.30
2023-05-12T15:47:52.399Z,22.30
2023-05-12T15:50:22.809Z,22.30
2023-05-12T15:52:50.430Z,22.20
2023-05-12T15:55:17.660Z,22.40
2023-05-12T15:57:44.936Z,22.10
2023-05-12T16:00:12.946Z,22.10
2023-05-12T16:02:41.220Z,22.00
2023-05-12T16:05:09.667Z,21.80
2023-05-12T16:07:36.654Z,21.50
2023-05-12T16:10:03.995Z,21.40
2023-05-12T16:12:31.610Z,21.20
2023-05-12T16:14:58.848Z,21.20
2023-05-12T16:17:26.005Z,21.30
2023-05-12T16:19:53.734Z,21.20
2023-05-12T16:22:20.737Z,21.30
2023-05-12T16:24:48.027Z,21.30
2023-05-12T16:27:15.324Z,21.30
2023-05-12T16:29:46.656Z,21.30
2023-05-12T16:32:13.992Z,21.00
2023-05-12T16:34:41.083Z,21.20
2023-05-12T16:37:08.215Z,21.20
2023-05-12T16:39:36.761Z,21.20
2023-05-12T16:42:04.028Z,21.40
2023-05-12T16:44:31.020Z,21.60
2023-05-12T16:46:58.003Z,21.80
2023-05-12T16:49:24.870Z,22.00
2023-05-12T16:51:51.802Z,22.00
2023-05-12T16:54:18.798Z,22.20
2023-05-12T16:56:45.932Z,22.20
2023-05-12T16:59:12.861Z,22.30
2023-05-12T17:01:41.493Z,22.10
2023-05-12T17:04:11.834Z,22.10
2023-05-12T17:06:39.156Z,21.80
2023-05-12T17:09:06.493Z,21.80
2023-05-12T17:11:33.604Z,21.60
2023-05-12T17:14:01.060Z,21.50
2023-05-12T17:16:28.841Z,21.20
2023-05-12T17:21:26.586Z,20.70
2023-05-12T17:23:53.886Z,20.50
2023-05-12T17:26:21.092Z,20.20
2023-05-12T17:28:48.131Z,20.10
2023-05-12T17:31:15.167Z,20.00
2023-05-12T17:33:42.079Z,20.20
2023-05-12T17:36:12.929Z,20.00
2023-05-12T17:38:41.344Z,19.70
2023-05-12T17:41:08.431Z,19.60
2023-05-12T17:43:38.653Z,19.70
2023-05-12T17:46:07.813Z,19.50
2023-05-12T17:48:35.097Z,19.30
2023-05-12T17:51:03.343Z,19.20
2023-05-12T17:53:31.329Z,19.30
2023-05-12T17:55:58.837Z,19.40
2023-05-12T17:58:25.853Z,19.20
2023-05-12T18:00:53.271Z,19.10
2023-05-12T18:03:23.854Z,18.80
2023-05-12T18:05:52.261Z,18.60
2023-05-12T18:08:19.415Z,18.50
2023-05-12T18:10:46.939Z,18.50
2023-05-12T18:13:16.456Z,18.40
2023-05-12T18:15:43.634Z,18.30
2023-05-12T18:18:11.222Z,18.20
2023-05-12T18:20:38.641Z,18.20
2023-05-12T18:23:05.797Z,18.30
2023-05-12T18:25:33.805Z,18.30
2023-05-12T18:28:01.057Z,18.30
2023-05-12T18:30:28.135Z,18.20
2023-05-12T18:32:55.217Z,18.30
2023-05-12T18:35:23.319Z,18.30
2023-05-12T18:37:50.745Z,18.10
2023-05-12T18:40:17.762Z,18.20
2023-05-12T18:42:44.645Z,18.10
2023-05-12T18:45:12.214Z,18.10
2023-05-12T18:47:39.575Z,18.10
2023-05-12T18:50:07.744Z,18.10
2023-05-12T18:52:34.950Z,18.00
2023-05-12T18:55:02.065Z,18.00
2023-05-12T18:57:29.863Z,18.00
2023-05-12T19:02:38.407Z,18.20
2023-05-12T19:05:05.726Z,18.10
2023-05-12T19:07:32.886Z,18.00
2023-05-12T19:09:59.941Z,18.00
2023-05-12T19:12:26.846Z,18.00
2023-05-12T19:14:54.329Z,17.90
2023-05-12T19:17:22.260Z,17.90
2023-05-12T19:19:50.651Z,17.80
2023-05-12T19:22:17.684Z,17.80
2023-05-12T19:24:44.758Z,17.80
2023-05-12T19:27:11.908Z,17.80
2023-05-12T19:29:41.820Z,17.90
2023-05-12T19:32:09.212Z,17.80
2023-05-12T19:34:36.738Z,17.80
2023-05-12T19:37:03.890Z,17.60
2023-05-12T19:39:31.071Z,17.60
2023-05-12T19:41:58.079Z,17.70
2023-05-12T19:44:25.131Z,17.70
2023-05-12T19:46:52.457Z,17.70
2023-05-12T19:49:19.432Z,17.70
2023-05-12T19:51:46.437Z,17.60
2023-05-12T19:54:18.878Z,17.50
2023-05-12T19:56:45.807Z,17.60
2023-05-12T19:59:12.762Z,17.60
2023-05-12T20:01:41.153Z,17.60
2023-05-12T20:04:08.776Z,17.70
2023-05-12T20:06:38.161Z,17.60
2023-05-12T20:09:13.112Z,17.60
2023-05-12T20:11:40.269Z,17.70
2023-05-12T20:14:07.407Z,17.70
2023-05-12T20:16:35.139Z,17.70
2023-05-12T20:19:03.014Z,17.70
2023-05-12T20:21:31.456Z,17.70
2023-05-12T20:23:59.945Z,17.70
2023-05-12T20:26:29.818Z,17.60
2023-05-12T20:28:56.976Z,17.80
2023-05-12T20:31:24.675Z,17.80
2023-05-12T20:33:51.803Z,17.80
2023-05-12T20:36:19.592Z,17.80
2023-05-12T20:38:46.792Z,17.90
2023-05-12T20:41:13.864Z,17.70
2023-05-12T20:43:41.541Z,17.60
2023-05-12T20:46:08.905Z,17.70
2023-05-12T20:48:35.798Z,17.70
2023-05-12T20:51:13.918Z,17.70
2023-05-12T20:53:41.037Z,17.60
2023-05-12T20:56:08.629Z,17.60
2023-05-12T20:58:35.993Z,17.50
2023-05-12T21:01:04.209Z,17.70
2023-05-12T21:03:33.617Z,17.60
2023-05-12T21:06:02.000Z,17.60
2023-05-12T21:08:28.829Z,17.50
2023-05-12T21:10:55.845Z,17.40
2023-05-12T21:13:22.696Z,17.30
2023-05-12T21:15:49.549Z,17.30
2023-05-12T21:18:16.435Z,17.40
2023-05-12T21:20:43.396Z,17.30
2023-05-12T21:23:11.727Z,17.30
2023-05-12T21:25:39.448Z,17.40
2023-05-12T21:28:07.598Z,17.30
2023-05-12T21:30:37.211Z,17.30
2023-05-12T21:33:05.490Z,17.30
2023-05-12T21:35:34.030Z,17.30
2023-05-12T21:38:01.159Z,17.30
2023-05-12T21:40:31.451Z,17.20
2023-05-12T21:42:58.368Z,17.20
2023-05-12T21:45:25.440Z,17.10
2023-05-12T21:47:53.249Z,17.20
2023-05-12T21:50:24.305Z,17.30
2023-05-12T21:52:51.264Z,17.20
2023-05-12T21:55:18.491Z,17.20
2023-05-12T21:57:46.236Z,17.30
2023-05-12T22:00:14.773Z,17.40
2023-05-12T22:02:42.094Z,17.50
2023-05-12T22:05:09.669Z,17.50
2023-05-12T22:07:36.626Z,17.40
2023-05-12T22:10:04.832Z,17.30
2023-05-12T22:12:32.563Z,17.20
2023-05-12T22:14:59.633Z,17.20
2023-05-12T22:17:27.040Z,17.20
2023-05-12T22:19:53.954Z,17.20
2023-05-12T22:22:20.882Z,17.20
2023-05-12T22:24:47.865Z,17.30
2023-05-12T22:27:15.611Z,17.20
2023-05-12T22:29:42.526Z,17.30
2023-05-12T22:32:09.461Z,17.20
2023-05-12T22:34:36.421Z,17.20
2023-05-12T22:37:03.482Z,17.10
2023-05-12T22:39:30.464Z,17.10
2023-05-12T22:41:57.402Z,17.10
2023-05-12T22:44:24.199Z,17.00
2023-05-12T22:46:51.026Z,17.00
2023-05-12T22:49:18.032Z,16.90
2023-05-12T22:51:45.075Z,16.80
2023-05-12T22:54:12.001Z,16.80
2023-05-12T22:56:38.870Z,16.70
2023-05-12T22:59:05.939Z,16.60
2023-05-12T23:01:32.976Z,16.50
2023-05-12T23:04:00.726Z,16.50
2023-05-12T23:06:27.625Z,16.50
2023-05-12T23:08:54.533Z,16.50
2023-05-12T23:11:21.603Z,16.60
2023-05-12T23:13:48.641Z,16.40
2023-05-12T23:16:15.890Z,16.30
2023-05-12T23:18:42.867Z,16.40
2023-05-12T23:21:09.833Z,16.30
2023-05-12T23:23:36.711Z,16.30
2023-05-12T23:26:04.681Z,16.20
2023-05-12T23:28:31.543Z,16.10
2023-05-12T23:30:58.373Z,16.10
2023-05-12T23:33:25.499Z,16.10
2023-05-12T23:35:52.403Z,16.30
2023-05-12T23:38:19.247Z,16.30
2023-05-12T23:40:47.180Z,16.40
2023-05-12T23:43:14.047Z,16.40
2023-05-12T23:45:41.587Z,16.30
2023-05-12T23:48:08.497Z,16.30
2023-05-12T23:50:35.427Z,16.50
2023-05-12T23:53:02.536Z,16.40
2023-05-12T23:55:31.095Z,16.50
2023-05-12T23:57:58.169Z,16.40
